createdAt,value
2023-02-11T00:01:45.335Z,73.93
2023-02-11T00:05:07.167Z,81.13
2023-02-11T00:08:28.847Z,69.37
2023-02-11T00:11:50.393Z,77.20
2023-02-11T00:15:14.067Z,72.47
2023-02-11T00:18:36.464Z,85.10
2023-02-11T00:21:58.081Z,79.67
2023-02-11T00:25:19.730Z,148.07
2023-02-11T00:28:41.827Z,90.10
2023-02-11T00:32:05.323Z,78.90
2023-02-11T00:35:26.966Z,72.43
2023-02-11T00:38:50.018Z,68.73
2023-02-11T00:42:14.846Z,71.00
2023-02-11T00:45:36.461Z,73.77
2023-02-11T00:48:58.103Z,70.30
2023-02-11T00:52:22.243Z,56.40
2023-02-11T00:55:46.920Z,58.73
2023-02-11T00:59:09.197Z,66.00
2023-02-11T01:02:30.864Z,57.23
2023-02-11T01:05:56.096Z,69.00
2023-02-11T01:09:17.899Z,57.17
2023-02-11T01:12:42.664Z,66.33
2023-02-11T01:16:07.725Z,66.93
2023-02-11T01:19:29.403Z,62.43
2023-02-11T01:22:51.068Z,66.90
2023-02-11T01:26:15.856Z,63.77
2023-02-11T01:29:37.443Z,60.40
2023-02-11T01:33:01.212Z,74.17
2023-02-11T01:36:22.873Z,63.97
2023-02-11T01:39:49.126Z,60.77
2023-02-11T01:43:12.027Z,65.73
2023-02-11T01:46:35.517Z,68.03
2023-02-11T01:49:59.343Z,67.67
2023-02-11T01:53:40.123Z,56.10
2023-02-11T01:57:21.972Z,69.70
2023-02-11T02:00:44.050Z,62.63
2023-02-11T02:04:07.416Z,86.20
2023-02-11T02:07:36.027Z,76.57
2023-02-11T02:11:00.902Z,64.43
2023-02-11T02:14:22.505Z,64.73
2023-02-11T02:18:07.223Z,64.93
2023-02-11T02:21:58.249Z,70.47
2023-02-11T02:25:48.722Z,62.20
2023-02-11T02:29:10.478Z,65.93
2023-02-11T02:32:56.731Z,69.97
2023-02-11T02:36:40.582Z,70.83
2023-02-11T02:40:09.957Z,74.13
2023-02-11T02:43:32.848Z,65.50
2023-02-11T02:46:59.867Z,64.57
2023-02-11T02:50:30.350Z,71.10
2023-02-11T02:53:57.815Z,71.37
2023-02-11T02:57:28.108Z,70.80
2023-02-11T03:01:08.211Z,72.10
2023-02-11T03:04:35.946Z,63.30
2023-02-11T03:08:01.401Z,69.23
2023-02-11T03:11:24.431Z,69.30
2023-02-11T03:14:51.373Z,66.77
2023-02-11T03:18:17.054Z,89.60
2023-02-11T03:21:42.755Z,80.47
2023-02-11T03:25:04.985Z,74.27
2023-02-11T03:28:35.456Z,71.30
2023-02-11T03:32:16.126Z,66.37
2023-02-11T03:35:56.299Z,64.20
2023-02-11T03:40:02.475Z,74.50
2023-02-11T03:43:38.910Z,84.20
2023-02-11T03:47:02.002Z,73.27
2023-02-11T03:50:28.132Z,72.20
2023-02-11T03:53:52.389Z,70.33
2023-02-11T03:57:13.975Z,67.83
2023-02-11T04:00:39.533Z,78.93
2023-02-11T04:04:01.420Z,68.27
2023-02-11T04:07:23.598Z,67.10
2023-02-11T04:10:52.524Z,65.23
2023-02-11T04:14:14.158Z,65.55
2023-02-11T04:17:38.076Z,71.23
2023-02-11T04:20:59.685Z,65.57
2023-02-11T04:24:23.475Z,76.47
2023-02-11T04:27:45.043Z,81.57
2023-02-11T04:31:12.139Z,89.67
2023-02-11T04:34:36.084Z,75.63
2023-02-11T04:38:00.141Z,76.37
2023-02-11T04:41:23.954Z,74.33
2023-02-11T04:44:45.618Z,79.93
2023-02-11T04:48:07.243Z,79.00
2023-02-11T04:51:28.875Z,74.30
2023-02-11T04:54:52.958Z,72.67
2023-02-11T04:58:14.600Z,78.37
2023-02-11T05:01:36.485Z,80.63
2023-02-11T05:05:00.609Z,72.03
2023-02-11T05:08:27.038Z,75.40
2023-02-11T05:11:48.941Z,78.83
2023-02-11T05:15:10.553Z,110.67
2023-02-11T05:18:32.144Z,70.20
2023-02-11T05:22:02.647Z,72.63
2023-02-11T05:25:27.378Z,74.73
2023-02-11T05:28:51.446Z,64.47
2023-02-11T05:32:15.308Z,66.87
2023-02-11T05:35:39.378Z,61.67
2023-02-11T05:39:04.037Z,65.63
2023-02-11T05:42:25.677Z,69.63
2023-02-11T05:45:50.230Z,78.03
2023-02-11T05:49:12.257Z,64.77
2023-02-11T05:52:33.869Z,74.33
2023-02-11T05:55:55.676Z,67.90
2023-02-11T05:59:19.861Z,69.60
2023-02-11T06:02:43.813Z,69.10
2023-02-11T06:06:10.881Z,72.00
2023-02-11T06:09:32.468Z,84.37
2023-02-11T06:12:56.422Z,74.57
2023-02-11T06:16:20.374Z,71.60
2023-02-11T06:19:42.102Z,69.10
2023-02-11T06:23:03.698Z,70.93
2023-02-11T06:26:25.665Z,71.03
2023-02-11T06:29:50.032Z,78.27
2023-02-11T06:33:11.650Z,73.13
2023-02-11T06:36:36.303Z,72.03
2023-02-11T06:39:57.890Z,65.67
2023-02-11T06:43:21.649Z,69.80
2023-02-11T06:46:45.396Z,65.83
2023-02-11T06:50:11.163Z,69.57
2023-02-11T06:53:41.515Z,73.20
2023-02-11T06:57:03.058Z,75.80
2023-02-11T07:00:24.819Z,211.53
2023-02-11T07:03:46.991Z,76.73
2023-02-11T07:07:08.896Z,64.30
2023-02-11T07:10:30.506Z,71.50
2023-02-11T07:13:54.623Z,82.50
2023-02-11T07:17:19.195Z,68.37
2023-02-11T07:20:43.149Z,67.10
2023-02-11T07:24:11.082Z,65.67
2023-02-11T07:27:33.244Z,65.40
2023-02-11T07:30:57.436Z,66.30
2023-02-11T07:34:19.145Z,63.20
2023-02-11T07:37:43.644Z,71.60
2023-02-11T07:41:07.666Z,56.57
2023-02-11T07:44:29.295Z,66.43
2023-02-11T07:47:50.904Z,71.27
2023-02-11T07:51:17.261Z,74.63
2023-02-11T07:54:38.842Z,68.47
2023-02-11T07:58:03.931Z,77.17
2023-02-11T08:01:28.778Z,82.53
2023-02-11T08:04:50.797Z,67.73
2023-02-11T08:08:12.648Z,73.97
2023-02-11T08:11:34.250Z,80.97
2023-02-11T08:14:56.435Z,77.80
2023-02-11T08:18:20.577Z,79.97
2023-02-11T08:21:44.971Z,85.90
2023-02-11T08:25:09.123Z,78.40
2023-02-11T08:28:30.874Z,70.90
2023-02-11T08:31:52.600Z,79.43
2023-02-11T08:35:17.007Z,68.47
2023-02-11T08:38:41.061Z,64.30
2023-02-11T08:42:02.707Z,62.30
2023-02-11T08:45:27.307Z,60.83
2023-02-11T08:48:48.924Z,65.33
2023-02-11T08:52:10.606Z,64.50
2023-02-11T08:55:32.226Z,67.23
2023-02-11T08:58:54.708Z,62.30
2023-02-11T09:02:21.433Z,68.97
2023-02-11T09:05:47.921Z,62.30
2023-02-11T09:09:13.781Z,77.97
2023-02-11T09:12:40.182Z,81.50
2023-02-11T09:16:05.954Z,69.43
2023-02-11T09:19:29.934Z,63.60
2023-02-11T09:22:51.573Z,57.60
2023-02-11T09:26:32.715Z,51.47
2023-02-11T09:29:54.326Z,52.00
2023-02-11T09:33:18.210Z,48.53
2023-02-11T09:36:43.224Z,47.27
2023-02-11T09:40:08.383Z,49.47
2023-02-11T09:43:46.966Z,33.60
2023-02-11T09:47:35.904Z,38.00
2023-02-11T09:51:04.347Z,38.40
2023-02-11T09:54:35.430Z,31.48
2023-02-11T09:57:58.193Z,33.40
2023-02-11T10:01:41.062Z,33.47
2023-02-11T10:05:32.100Z,36.63
2023-02-11T10:09:07.997Z,34.60
2023-02-11T10:12:38.647Z,31.30
2023-02-11T10:16:22.666Z,33.33
2023-02-11T10:20:11.596Z,33.13
2023-02-11T10:23:40.163Z,35.97
2023-02-11T10:27:08.690Z,38.58
2023-02-11T10:30:40.951Z,34.22
2023-02-11T10:34:13.748Z,36.87
2023-02-11T10:37:35.324Z,39.90
2023-02-11T10:40:56.920Z,37.87
2023-02-11T10:44:24.374Z,37.53
2023-02-11T10:47:46.077Z,35.95
2023-02-11T10:51:25.303Z,40.17
2023-02-11T10:58:25.679Z,35.10
2023-02-11T11:01:51.798Z,38.05
2023-02-11T11:05:22.597Z,37.28
2023-02-11T11:08:49.804Z,35.50
2023-02-11T11:12:31.589Z,38.37
2023-02-11T11:16:13.804Z,40.53
2023-02-11T11:19:39.191Z,33.23
2023-02-11T11:23:22.809Z,38.20
2023-02-11T11:26:54.262Z,32.40
2023-02-11T11:30:17.053Z,31.57
2023-02-11T11:33:45.132Z,30.05
2023-02-11T11:37:28.856Z,30.70
2023-02-11T11:41:14.561Z,32.85
2023-02-11T11:44:38.278Z,30.95
2023-02-11T11:48:19.421Z,30.15
2023-02-11T11:51:43.669Z,29.67
2023-02-11T11:55:20.749Z,30.05
2023-02-11T11:58:44.904Z,28.17
2023-02-11T12:02:40.537Z,33.42
2023-02-11T12:06:23.815Z,30.80
2023-02-11T12:10:24.104Z,31.00
2023-02-11T12:13:57.799Z,31.20
2023-02-11T12:17:25.939Z,31.10
2023-02-11T12:21:09.339Z,28.55
2023-02-11T12:24:52.250Z,27.75
2023-02-11T12:28:35.451Z,25.63
2023-02-11T12:32:36.490Z,26.05
2023-02-11T12:36:22.594Z,25.85
2023-02-11T12:39:50.024Z,24.23
2023-02-11T12:43:24.911Z,23.92
2023-02-11T12:47:27.484Z,23.15
2023-02-11T12:50:59.201Z,24.35
2023-02-11T12:54:32.696Z,23.35
2023-02-11T12:58:00.013Z,22.55
2023-02-11T13:01:27.309Z,25.92
2023-02-11T13:04:59.905Z,23.75
2023-02-11T13:08:51.258Z,18.63
2023-02-11T13:12:32.852Z,20.65
2023-02-11T13:16:07.853Z,19.02
2023-02-11T13:19:40.751Z,18.80
2023-02-11T13:23:19.518Z,21.98
2023-02-11T13:26:57.716Z,18.60
2023-02-11T13:30:28.333Z,18.23
2023-02-11T13:33:50.023Z,20.77
2023-02-11T13:37:37.098Z,20.15
2023-02-11T13:41:06.838Z,20.48
2023-02-11T13:44:28.844Z,24.45
2023-02-11T13:47:59.872Z,21.70
2023-02-11T13:51:44.936Z,19.02
2023-02-11T13:55:22.557Z,28.88
2023-02-11T13:58:51.920Z,22.25
2023-02-11T14:02:55.045Z,18.60
2023-02-11T14:06:38.599Z,22.55
2023-02-11T14:10:02.424Z,21.00
2023-02-11T14:13:31.565Z,20.27
2023-02-11T14:17:02.310Z,19.73
2023-02-11T14:20:43.321Z,20.50
2023-02-11T14:24:05.032Z,21.03
2023-02-11T14:27:41.720Z,20.57
2023-02-11T14:31:10.627Z,21.93
2023-02-11T14:35:09.779Z,25.50
2023-02-11T14:38:52.944Z,21.20
2023-02-11T14:42:25.476Z,22.90
2023-02-11T14:45:52.105Z,20.57
2023-02-11T14:49:36.434Z,20.60
2023-02-11T14:53:01.405Z,21.20
2023-02-11T14:56:27.939Z,19.07
2023-02-11T15:00:05.608Z,18.93
2023-02-11T15:03:32.523Z,21.43
2023-02-11T15:06:55.538Z,23.13
2023-02-11T15:10:39.620Z,21.57
2023-02-11T15:14:11.963Z,28.30
2023-02-11T15:17:36.344Z,20.73
2023-02-11T15:21:00.235Z,22.07
2023-02-11T15:24:30.892Z,20.67
2023-02-11T15:27:57.119Z,21.83
2023-02-11T15:31:23.673Z,23.73
2023-02-11T15:34:46.769Z,22.53
2023-02-11T15:38:12.768Z,22.27
2023-02-11T15:41:37.758Z,21.13
2023-02-11T15:45:11.749Z,56.87
2023-02-11T15:48:40.132Z,38.37
2023-02-11T15:52:02.917Z,23.05
2023-02-11T15:55:27.238Z,22.05
2023-02-11T15:58:52.183Z,24.02
2023-02-11T16:02:20.944Z,25.10
2023-02-11T16:09:07.770Z,24.08
2023-02-11T16:12:30.178Z,21.73
2023-02-11T16:16:04.743Z,22.93
2023-02-11T16:19:28.131Z,24.07
2023-02-11T16:22:49.841Z,57.53
2023-02-11T16:26:37.728Z,62.23
2023-02-11T16:29:59.566Z,23.57
2023-02-11T16:33:23.439Z,22.80
2023-02-11T16:36:46.604Z,26.60
2023-02-11T16:40:09.894Z,24.97
2023-02-11T16:43:31.590Z,27.37
2023-02-11T16:46:53.739Z,24.83
2023-02-11T16:50:24.287Z,26.03
2023-02-11T16:53:45.869Z,30.33
2023-02-11T16:57:30.332Z,26.03
2023-02-11T17:00:52.818Z,24.47
2023-02-11T17:04:27.498Z,25.93
2023-02-11T17:07:49.733Z,51.30
2023-02-11T17:11:11.537Z,33.97
2023-02-11T17:14:33.077Z,26.87
2023-02-11T17:17:56.899Z,27.87
2023-02-11T17:21:18.674Z,21.43
2023-02-11T17:24:45.218Z,28.73
2023-02-11T17:28:08.316Z,27.70
2023-02-11T17:31:30.116Z,74.17
2023-02-11T17:34:53.172Z,27.83
2023-02-11T17:38:18.074Z,25.40
2023-02-11T17:41:40.735Z,26.13
2023-02-11T17:45:02.378Z,30.37
2023-02-11T17:48:24.592Z,30.47
2023-02-11T17:51:48.795Z,29.50
2023-02-11T17:55:10.480Z,47.43
2023-02-11T17:58:32.287Z,39.43
2023-02-11T18:01:56.640Z,27.90
2023-02-11T18:05:20.572Z,30.03
2023-02-11T18:08:45.136Z,32.47
2023-02-11T18:12:10.792Z,30.23
2023-02-11T18:15:33.591Z,73.60
2023-02-11T18:19:00.958Z,27.63
2023-02-11T18:22:23.168Z,29.40
2023-02-11T18:25:47.059Z,27.93
2023-02-11T18:29:13.369Z,26.47
2023-02-11T18:32:37.492Z,30.63
2023-02-11T18:36:06.934Z,25.10
2023-02-11T18:39:31.329Z,30.23
2023-02-11T18:42:55.673Z,26.30
2023-02-11T18:46:20.424Z,26.60
2023-02-11T18:49:41.997Z,26.53
2023-02-11T18:53:03.603Z,26.20
2023-02-11T18:56:27.844Z,25.07
2023-02-11T18:59:50.713Z,26.87
2023-02-11T19:03:12.364Z,25.17
2023-02-11T19:06:36.588Z,26.60
2023-02-11T19:09:58.759Z,26.27
2023-02-11T19:13:20.396Z,31.50
2023-02-11T19:16:44.201Z,24.77
2023-02-11T19:20:06.852Z,27.20
2023-02-11T19:23:28.409Z,28.27
2023-02-11T19:26:55.393Z,26.73
2023-02-11T19:30:17.113Z,28.60
2023-02-11T19:33:38.700Z,25.37
2023-02-11T19:37:01.686Z,26.97
2023-02-11T19:40:26.082Z,23.90
2023-02-11T19:43:53.019Z,32.77
2023-02-11T19:47:14.815Z,75.13
2023-02-11T19:50:36.348Z,30.83
2023-02-11T19:53:58.602Z,28.90
2023-02-11T19:57:20.178Z,30.47
2023-02-11T20:00:44.250Z,28.60
2023-02-11T20:04:08.655Z,27.60
2023-02-11T20:07:32.760Z,32.07
2023-02-11T20:10:54.341Z,27.27
2023-02-11T20:14:16.107Z,27.03
2023-02-11T20:17:37.674Z,29.70
2023-02-11T20:21:01.737Z,25.40
2023-02-11T20:24:26.124Z,24.83
2023-02-11T20:27:47.707Z,24.00
2023-02-11T20:31:11.085Z,25.20
2023-02-11T20:34:33.209Z,24.90
2023-02-11T20:37:54.783Z,25.13
2023-02-11T20:41:25.448Z,23.20
2023-02-11T20:44:47.059Z,24.23
2023-02-11T20:48:08.727Z,28.07
2023-02-11T20:51:33.975Z,22.37
2023-02-11T20:54:57.778Z,21.70
2023-02-11T20:58:19.345Z,23.47
2023-02-11T21:01:44.490Z,24.40
2023-02-11T21:05:06.469Z,21.90
2023-02-11T21:08:28.112Z,22.83
2023-02-11T21:11:51.722Z,29.70
2023-02-11T21:15:15.906Z,34.40
2023-02-11T21:18:37.769Z,22.03
2023-02-11T21:22:00.959Z,21.10
2023-02-11T21:25:24.945Z,22.60
2023-02-11T21:28:46.645Z,23.23
2023-02-11T21:32:11.048Z,20.90
2023-02-11T21:35:37.273Z,25.07
2023-02-11T21:39:00.112Z,23.00
2023-02-11T21:42:24.070Z,19.30
2023-02-11T21:45:49.853Z,28.97
2023-02-11T21:49:11.500Z,25.33
2023-02-11T21:52:36.548Z,21.27
2023-02-11T21:56:10.112Z,20.10
2023-02-11T21:59:31.945Z,22.07
2023-02-11T22:02:53.657Z,22.47
2023-02-11T22:06:18.408Z,21.43
2023-02-11T22:09:43.061Z,20.40
2023-02-11T22:13:04.873Z,21.50
2023-02-11T22:16:27.489Z,19.90
2023-02-11T22:19:56.700Z,22.87
2023-02-11T22:23:18.286Z,22.97
2023-02-11T22:26:39.906Z,19.20
2023-02-11T22:30:02.700Z,30.63
2023-02-11T22:33:25.529Z,20.03
2023-02-11T22:36:47.413Z,20.07
2023-02-11T22:40:09.355Z,20.00
2023-02-11T22:43:31.400Z,19.00
2023-02-11T22:46:53.733Z,18.07
2023-02-11T22:50:17.587Z,21.07
2023-02-11T22:53:39.547Z,22.40
2023-02-11T22:57:01.301Z,21.07
2023-02-11T23:00:30.778Z,18.60
2023-02-11T23:03:54.683Z,18.70
2023-02-11T23:07:16.617Z,18.70
2023-02-11T23:10:41.925Z,20.80
2023-02-11T23:14:03.987Z,23.50
2023-02-11T23:17:26.242Z,18.70
2023-02-11T23:20:47.906Z,20.47
2023-02-11T23:24:16.807Z,17.43
2023-02-11T23:31:15.278Z,18.50
2023-02-11T23:34:39.157Z,23.97
2023-02-11T23:38:00.838Z,15.87
2023-02-11T23:41:25.376Z,19.17
2023-02-11T23:44:49.585Z,19.43
2023-02-11T23:48:13.713Z,18.17
2023-02-11T23:51:35.436Z,19.73
2023-02-11T23:54:57.009Z,21.93
2023-02-11T23:58:20.877Z,18.90
